Richmond Heights, Ohio
Current Conditions -  °F | °C
As of 10:45 PM on Saturday 22 Nov 2014 (Local Time) from KCGF Reporting Station
Light Rain Light Rain  
Wind Chill: 52°   Ceiling: 6000
Heat Index: 52°   Visibility: 7mi
Dew Point: 37°   Wind: 16mph
Humidity: 58%   Direction: 200°SSW
Pressure: 30.02"   Gusts: 23mph
Location:  41.5545°N, 81.4746°W
Report Text: KCGF 230345Z 20014G20KT 7SM -RA SCT035 OVC060 11/03 A3002
Loading
Personal Weather Stations






























Interactive Weather Map New forecast layout! Learn more

10-Day Weather Forecast

Advertisements
Track Severe Weather on mobile